createdAt,value
2018-11-23T00:00:38.400Z,0.33
2018-11-23T00:01:38.335Z,0.31
2018-11-23T00:02:38.306Z,0.3
2018-11-23T00:03:38.544Z,0.33
2018-11-23T00:04:38.519Z,0.34
2018-11-23T00:05:38.242Z,0.33
2018-11-23T00:06:38.465Z,0.3
2018-11-23T00:07:38.197Z,0.34
2018-11-23T00:08:38.171Z,0.49
2018-11-23T00:09:38.151Z,0.57
2018-11-23T00:10:38.115Z,0.58
2018-11-23T00:11:38.101Z,0.57
2018-11-23T00:12:37.830Z,0.62
2018-11-23T00:13:38.054Z,0.61
2018-11-23T00:14:37.784Z,0.67
2018-11-23T00:15:38.002Z,0.75
2018-11-23T00:16:37.730Z,0.71
2018-11-23T00:17:37.986Z,0.67
2018-11-23T00:18:38.194Z,0.75
2018-11-23T00:19:37.915Z,0.67
2018-11-23T00:20:37.897Z,0.79
2018-11-23T00:21:37.912Z,0.71
2018-11-23T00:22:38.104Z,0.79
2018-11-23T00:23:37.824Z,0.76
2018-11-23T00:24:37.839Z,0.8
2018-11-23T00:25:37.782Z,0.82
2018-11-23T00:26:37.759Z,0.71
2018-11-23T00:27:37.757Z,0.75
2018-11-23T00:28:37.967Z,0.8
2018-11-23T00:29:37.687Z,0.75
2018-11-23T00:30:37.664Z,0.78
2018-11-23T00:31:37.643Z,0.78
2018-11-23T00:32:37.615Z,0.75
2018-11-23T00:33:37.601Z,0.78
2018-11-23T00:34:37.827Z,0.72
2018-11-23T00:35:37.548Z,0.68
2018-11-23T00:36:37.784Z,0.65
2018-11-23T00:37:37.510Z,0.65
2018-11-23T00:38:37.482Z,0.67
2018-11-23T00:39:37.713Z,0.68
2018-11-23T00:40:37.181Z,0.68
2018-11-23T00:41:37.164Z,0.61
2018-11-23T00:42:37.644Z,0.65
2018-11-23T00:43:37.360Z,0.62
2018-11-23T00:44:37.593Z,0.6
2018-11-23T00:45:42.745Z,0.53
2018-11-23T00:46:37.296Z,0.42
2018-11-23T00:47:37.304Z,0.53
2018-11-23T00:48:37.256Z,0.49
2018-11-23T00:49:37.491Z,0.52
2018-11-23T00:50:37.466Z,0.58
2018-11-23T00:51:37.440Z,0.52
2018-11-23T00:52:37.413Z,0.52
2018-11-23T00:53:37.134Z,0.51
2018-11-23T00:54:37.109Z,0.48
2018-11-23T00:55:36.840Z,0.48
2018-11-23T00:56:37.065Z,0.52
2018-11-23T00:57:37.296Z,0.52
2018-11-23T00:58:37.268Z,0.46
2018-11-23T00:59:37.283Z,0.49
2018-11-23T01:00:36.966Z,0.48
2018-11-23T01:01:36.943Z,0.46
2018-11-23T01:02:37.177Z,0.51
2018-11-23T01:03:37.157Z,0.48
2018-11-23T01:04:36.885Z,0.45
2018-11-23T01:05:36.866Z,0.6
2018-11-23T01:06:36.835Z,0.49
2018-11-23T01:07:37.071Z,0.52
2018-11-23T01:08:37.251Z,0.52
2018-11-23T01:09:37.025Z,0.48
2018-11-23T01:10:36.737Z,0.57
2018-11-23T01:11:36.720Z,0.57
2018-11-23T01:12:36.693Z,0.53
2018-11-23T01:13:36.669Z,0.53
2018-11-23T01:14:36.657Z,0.57
2018-11-23T01:15:36.881Z,0.53
2018-11-23T01:16:36.613Z,0.49
2018-11-23T01:17:36.831Z,0.57
2018-11-23T01:18:36.559Z,0.57
2018-11-23T01:19:36.529Z,0.58
2018-11-23T01:20:36.559Z,0.58
2018-11-23T01:21:36.251Z,0.57
2018-11-23T01:22:36.715Z,0.53
2018-11-23T01:23:36.444Z,0.48
2018-11-23T01:24:36.419Z,0.51
2018-11-23T01:25:36.141Z,0.57
2018-11-23T01:26:36.113Z,0.38
2018-11-23T01:27:36.602Z,0.46
2018-11-23T01:28:36.593Z,0.48
2018-11-23T01:29:36.312Z,0.51
2018-11-23T01:30:36.581Z,0.39
2018-11-23T01:31:36.512Z,0.42
2018-11-23T01:32:36.241Z,0.28
2018-11-23T01:33:36.482Z,0.39
2018-11-23T01:34:35.927Z,0.39
2018-11-23T01:35:36.445Z,0.38
2018-11-23T01:36:36.394Z,0.39
2018-11-23T01:37:35.887Z,0.28
2018-11-23T01:38:36.347Z,0.33
2018-11-23T01:39:36.329Z,0.31
2018-11-23T01:40:36.047Z,0.3
2018-11-23T01:41:36.315Z,0.34
2018-11-23T01:42:36.002Z,0.24
2018-11-23T01:43:36.233Z,0.3
2018-11-23T01:44:35.695Z,0.3
2018-11-23T01:45:35.672Z,0.21
2018-11-23T01:46:36.184Z,0.25
2018-11-23T01:47:35.886Z,0.3
2018-11-23T01:48:35.609Z,0.24
2018-11-23T01:49:36.091Z,0.24
2018-11-23T01:50:36.074Z,0.25
2018-11-23T01:51:35.538Z,0.3
2018-11-23T01:52:35.826Z,0.23
2018-11-23T01:53:36.040Z,0.25
2018-11-23T01:54:35.723Z,0.24
2018-11-23T01:55:35.950Z,0.28
2018-11-23T01:56:35.679Z,0.15
2018-11-23T01:57:35.902Z,0.23
2018-11-23T01:58:35.887Z,0.23
2018-11-23T01:59:35.860Z,0.28
2018-11-23T02:00:35.576Z,0.2
2018-11-23T02:01:35.817Z,0.2
2018-11-23T02:02:35.788Z,0.2
2018-11-23T02:03:35.261Z,0.31
2018-11-23T02:04:35.743Z,0.28
2018-11-23T02:05:35.232Z,0.15
2018-11-23T02:06:35.444Z,0.28
2018-11-23T02:07:35.420Z,0.2
2018-11-23T02:08:35.401Z,0.15
2018-11-23T02:09:35.121Z,0.23
2018-11-23T02:10:35.351Z,0.16
2018-11-23T02:11:35.351Z,0.21
2018-11-23T02:12:35.053Z,0.09
2018-11-23T02:13:35.536Z,0.25
2018-11-23T02:14:35.004Z,0.13
2018-11-23T02:15:35.489Z,0.12
2018-11-23T02:16:35.213Z,0.07
2018-11-23T02:17:35.191Z,0.05
2018-11-23T02:18:35.425Z,0
2018-11-23T02:19:35.399Z,0.02
2018-11-23T02:20:35.120Z,-0.04
2018-11-23T02:21:35.090Z,0.02
2018-11-23T02:22:35.077Z,-0.08
2018-11-23T02:23:35.051Z,-0.01
2018-11-23T02:24:35.279Z,-0.06
2018-11-23T02:25:35.249Z,-0.05
2018-11-23T02:26:34.975Z,-0.04
2018-11-23T02:27:35.209Z,-0.12
2018-11-23T02:28:34.974Z,-0.08
2018-11-23T02:29:34.909Z,-0.08
2018-11-23T02:30:35.143Z,-0.13
2018-11-23T02:31:35.120Z,-0.16
2018-11-23T02:32:35.088Z,-0.12
2018-11-23T02:33:34.560Z,-0.13
2018-11-23T02:34:34.831Z,-0.16
2018-11-23T02:35:35.018Z,-0.16
2018-11-23T02:36:34.487Z,-0.12
2018-11-23T02:37:34.982Z,-0.11
2018-11-23T02:38:34.961Z,-0.13
2018-11-23T02:39:34.929Z,-0.11
2018-11-23T02:40:34.651Z,-0.15
2018-11-23T02:41:34.884Z,-0.15
2018-11-23T02:42:34.612Z,-0.09
2018-11-23T02:43:34.834Z,-0.05
2018-11-23T02:44:34.304Z,-0.08
2018-11-23T02:45:34.528Z,-0.08
2018-11-23T02:46:34.511Z,-0.08
2018-11-23T02:47:34.745Z,-0.05
2018-11-23T02:48:34.716Z,-0.08
2018-11-23T02:49:34.440Z,-0.04
2018-11-23T02:50:34.237Z,-0.01
2018-11-23T02:51:34.432Z,-0.04
2018-11-23T02:52:34.375Z,-0.06
2018-11-23T02:53:34.346Z,-0.06
2018-11-23T02:54:34.325Z,-0.05
2018-11-23T02:55:34.611Z,0.03
2018-11-23T02:56:34.274Z,-0.01
2018-11-23T02:57:34.261Z,-0.08
2018-11-23T02:58:34.483Z,-0.06
2018-11-23T02:59:34.206Z,-0.01
2018-11-23T03:00:34.448Z,-0.04
2018-11-23T03:01:34.410Z,-0.04
2018-11-23T03:02:33.882Z,0
2018-11-23T03:03:34.371Z,-0.06
2018-11-23T03:04:34.089Z,-0.01
2018-11-23T03:05:34.323Z,-0.04
2018-11-23T03:06:34.309Z,-0.04
2018-11-23T03:07:34.277Z,-0.06
2018-11-23T03:08:34.206Z,-0.01
2018-11-23T03:09:34.238Z,-0.05
2018-11-23T03:10:33.961Z,-0.11
2018-11-23T03:11:34.199Z,-0.05
2018-11-23T03:12:34.160Z,-0.08
2018-11-23T03:13:34.138Z,-0.08
2018-11-23T03:14:33.858Z,-0.08
2018-11-23T03:15:33.838Z,-0.13
2018-11-23T03:16:34.063Z,-0.09
2018-11-23T03:17:33.538Z,-0.12
2018-11-23T03:18:34.049Z,-0.16
2018-11-23T03:19:33.995Z,-0.19
2018-11-23T03:20:33.967Z,-0.16
2018-11-23T03:21:33.437Z,-0.19
2018-11-23T03:22:33.669Z,-0.29
2018-11-23T03:23:33.655Z,-0.22
2018-11-23T03:24:33.622Z,-0.3
2018-11-23T03:25:33.848Z,-0.18
2018-11-23T03:26:33.833Z,-0.18
2018-11-23T03:27:33.801Z,-0.19
2018-11-23T03:28:33.792Z,-0.31
2018-11-23T03:29:33.508Z,-0.26
2018-11-23T03:30:33.738Z,-0.15
2018-11-23T03:31:33.458Z,-0.23
2018-11-23T03:32:33.715Z,-0.27
2018-11-23T03:33:33.663Z,-0.39
2018-11-23T03:34:33.646Z,-0.39
2018-11-23T03:35:33.620Z,-0.29
2018-11-23T03:36:33.351Z,-0.24
2018-11-23T03:37:33.574Z,-0.24
2018-11-23T03:38:33.554Z,-0.3
2018-11-23T03:39:38.965Z,-0.31
2018-11-23T03:40:33.244Z,-0.33
2018-11-23T03:41:33.477Z,-0.34
2018-11-23T03:42:33.200Z,-0.31
2018-11-23T03:43:33.429Z,-0.27
2018-11-23T03:44:33.409Z,-0.27
2018-11-23T03:45:32.883Z,-0.3
2018-11-23T03:46:33.368Z,-0.29
2018-11-23T03:47:33.079Z,-0.23
2018-11-23T03:48:33.062Z,-0.29
2018-11-23T03:49:33.043Z,-0.27
2018-11-23T03:50:33.274Z,-0.29
2018-11-23T03:51:32.999Z,-0.29
2018-11-23T03:52:32.969Z,-0.37
2018-11-23T03:53:32.948Z,-0.29
2018-11-23T03:54:32.938Z,-0.27
2018-11-23T03:55:32.896Z,-0.19
2018-11-23T03:56:32.875Z,-0.16
2018-11-23T03:57:33.104Z,-0.26
2018-11-23T03:58:33.093Z,-0.22
2018-11-23T03:59:32.817Z,-0.22
2018-11-23T04:00:32.783Z,-0.16
2018-11-23T04:01:33.012Z,-0.16
2018-11-23T04:02:32.990Z,-0.15
2018-11-23T04:03:32.964Z,-0.13
2018-11-23T04:04:32.939Z,-0.16
2018-11-23T04:05:32.674Z,-0.12
2018-11-23T04:06:32.902Z,-0.15
2018-11-23T04:07:32.874Z,-0.19
2018-11-23T04:08:32.348Z,-0.23
2018-11-23T04:09:32.578Z,-0.19
2018-11-23T04:10:32.543Z,-0.18
2018-11-23T04:11:32.778Z,-0.19
2018-11-23T04:12:32.498Z,-0.16
2018-11-23T04:13:32.472Z,-0.22
2018-11-23T04:14:32.711Z,-0.23
2018-11-23T04:15:32.438Z,-0.18
2018-11-23T04:16:32.420Z,-0.23
2018-11-23T04:17:32.638Z,-0.27
2018-11-23T04:18:32.359Z,-0.23
2018-11-23T04:19:32.589Z,-0.15
2018-11-23T04:20:32.570Z,-0.18
2018-11-23T04:21:32.541Z,-0.12
2018-11-23T04:22:32.266Z,-0.15
2018-11-23T04:23:32.243Z,-0.13
2018-11-23T04:24:32.470Z,-0.09
2018-11-23T04:25:32.452Z,-0.13
2018-11-23T04:26:32.418Z,-0.09
2018-11-23T04:27:32.405Z,-0.19
2018-11-23T04:28:32.373Z,-0.13
2018-11-23T04:29:32.362Z,-0.12
2018-11-23T04:30:32.332Z,-0.13
2018-11-23T04:31:32.066Z,-0.12
2018-11-23T04:32:32.289Z,-0.15
2018-11-23T04:33:32.006Z,-0.13
2018-11-23T04:34:32.263Z,-0.11
2018-11-23T04:35:31.960Z,-0.11
2018-11-23T04:36:32.187Z,-0.08
2018-11-23T04:37:32.201Z,-0.08
2018-11-23T04:38:31.885Z,-0.12
2018-11-23T04:39:31.628Z,-0.12
2018-11-23T04:40:31.841Z,-0.08
2018-11-23T04:41:31.823Z,-0.13
2018-11-23T04:42:31.784Z,-0.11
2018-11-23T04:43:31.515Z,-0.11
2018-11-23T04:44:31.502Z,-0.13
2018-11-23T04:45:31.975Z,-0.08
2018-11-23T04:46:31.714Z,-0.11
2018-11-23T04:47:31.928Z,-0.05
2018-11-23T04:48:31.899Z,0
2018-11-23T04:49:31.881Z,-0.05
2018-11-23T04:50:31.600Z,-0.05
2018-11-23T04:51:31.834Z,-0.05
2018-11-23T04:52:31.812Z,-0.08
2018-11-23T04:53:31.797Z,-0.11
2018-11-23T04:54:31.509Z,-0.06
2018-11-23T04:55:31.226Z,-0.09
2018-11-23T04:56:31.211Z,-0.09
2018-11-23T04:57:31.698Z,-0.13
2018-11-23T04:58:31.421Z,-0.05
2018-11-23T04:59:31.655Z,-0.08
2018-11-23T05:00:31.123Z,-0.15
2018-11-23T05:01:31.348Z,-0.08
2018-11-23T05:02:31.345Z,-0.09
2018-11-23T05:03:32.468Z,-0.13
2018-11-23T05:04:31.526Z,-0.13
2018-11-23T05:05:31.500Z,-0.12
2018-11-23T05:06:30.980Z,-0.12
2018-11-23T05:07:31.460Z,-0.22
2018-11-23T05:08:46.234Z,-0.22
2018-11-23T05:09:31.417Z,-0.22
2018-11-23T05:10:31.391Z,-0.19
2018-11-23T05:11:31.368Z,-0.11
2018-11-23T05:12:31.345Z,-0.13
2018-11-23T05:13:31.383Z,-0.16
2018-11-23T05:14:31.291Z,-0.16
2018-11-23T05:15:30.766Z,-0.18
2018-11-23T05:16:31.244Z,-0.23
2018-11-23T05:17:30.976Z,-0.19
2018-11-23T05:18:30.722Z,-0.34
2018-11-23T05:19:30.925Z,-0.33
2018-11-23T05:20:30.899Z,-0.31
2018-11-23T05:21:31.130Z,-0.29
2018-11-23T05:22:30.864Z,-0.33
2018-11-23T05:23:31.106Z,-0.29
2018-11-23T05:24:30.805Z,-0.3
2018-11-23T05:25:30.778Z,-0.31
2018-11-23T05:26:31.007Z,-0.29
2018-11-23T05:27:30.478Z,-0.3
2018-11-23T05:28:30.703Z,-0.29
2018-11-23T05:29:30.942Z,-0.36
2018-11-23T05:30:30.681Z,-0.36
2018-11-23T05:31:30.908Z,-0.36
2018-11-23T05:32:30.610Z,-0.34
2018-11-23T05:33:30.591Z,-0.39
2018-11-23T05:34:30.861Z,-0.33
2018-11-23T05:35:30.341Z,-0.37
2018-11-23T05:36:30.777Z,-0.37
2018-11-23T05:37:30.503Z,-0.31
2018-11-23T05:38:30.727Z,-0.31
2018-11-23T05:39:30.449Z,-0.16
2018-11-23T05:40:30.440Z,-0.29
2018-11-23T05:41:30.405Z,-0.31
2018-11-23T05:42:30.372Z,-0.18
2018-11-23T05:43:30.108Z,-0.24
2018-11-23T05:44:30.341Z,-0.16
2018-11-23T05:45:30.318Z,-0.22
2018-11-23T05:46:30.537Z,-0.23
2018-11-23T05:47:30.259Z,-0.22
2018-11-23T05:48:31.863Z,-0.27
2018-11-23T05:49:29.960Z,-0.16
2018-11-23T05:50:30.444Z,-0.26
2018-11-23T05:51:30.441Z,-0.22
2018-11-23T05:52:30.144Z,-0.11
2018-11-23T05:53:30.116Z,-0.18
2018-11-23T05:54:30.360Z,-0.19
2018-11-23T05:55:30.081Z,-0.24
2018-11-23T05:56:30.301Z,-0.19
2018-11-23T05:57:30.024Z,-0.15
2018-11-23T05:58:30.042Z,-0.26
2018-11-23T05:59:30.236Z,-0.22
2018-11-23T06:00:29.953Z,-0.23
2018-11-23T06:01:30.189Z,-0.18
2018-11-23T06:02:29.919Z,-0.24
2018-11-23T06:03:29.889Z,-0.18
2018-11-23T06:04:30.123Z,-0.19
2018-11-23T06:05:30.091Z,-0.15
2018-11-23T06:06:30.808Z,-0.19
2018-11-23T06:07:29.796Z,-0.23
2018-11-23T06:08:30.021Z,-0.22
2018-11-23T06:09:29.506Z,-0.19
2018-11-23T06:10:29.742Z,-0.23
2018-11-23T06:11:29.952Z,-0.15
2018-11-23T06:12:29.673Z,-0.23
2018-11-23T06:13:29.912Z,-0.22
2018-11-23T06:14:29.633Z,-0.15
2018-11-23T06:15:29.856Z,-0.11
2018-11-23T06:16:29.837Z,-0.19
2018-11-23T06:17:29.809Z,-0.11
2018-11-23T06:18:29.790Z,-0.15
2018-11-23T06:19:29.769Z,-0.11
2018-11-23T06:20:29.489Z,-0.12
2018-11-23T06:21:29.713Z,-0.09
2018-11-23T06:22:29.214Z,-0.12
2018-11-23T06:23:29.667Z,-0.11
2018-11-23T06:24:36.319Z,-0.12
2018-11-23T06:25:29.642Z,-0.12
2018-11-23T06:26:29.599Z,-0.16
2018-11-23T06:27:29.068Z,-0.11
2018-11-23T06:28:29.550Z,-0.05
2018-11-23T06:29:29.275Z,-0.12
2018-11-23T06:30:29.264Z,-0.09
2018-11-23T06:31:29.489Z,-0.06
2018-11-23T06:32:29.207Z,-0.09
2018-11-23T06:33:29.435Z,-0.11
2018-11-23T06:34:29.156Z,-0.11
2018-11-23T06:35:29.140Z,-0.12
2018-11-23T06:36:29.358Z,-0.12
2018-11-23T06:37:29.088Z,-0.13
2018-11-23T06:38:29.312Z,-0.13
2018-11-23T06:39:29.038Z,-0.13
2018-11-23T06:40:29.013Z,-0.11
2018-11-23T06:41:28.744Z,-0.06
2018-11-23T06:42:28.975Z,-0.13
2018-11-23T06:43:28.941Z,-0.13
2018-11-23T06:44:29.168Z,-0.16
2018-11-23T06:45:29.147Z,-0.15
2018-11-23T06:46:29.131Z,-0.04
2018-11-23T06:47:29.107Z,-0.05
2018-11-23T06:48:29.086Z,-0.01
2018-11-23T06:49:29.060Z,-0.04
2018-11-23T06:50:29.048Z,0.03
2018-11-23T06:51:28.500Z,0.05
2018-11-23T06:52:28.749Z,-0.04
2018-11-23T06:53:28.960Z,0.05
2018-11-23T06:54:28.433Z,-0.04
2018-11-23T06:55:28.921Z,-0.05
2018-11-23T06:56:28.889Z,-0.01
2018-11-23T06:57:28.615Z,0.05
2018-11-23T06:58:28.862Z,-0.08
2018-11-23T06:59:28.620Z,-0.04
2018-11-23T07:00:28.828Z,0.05
2018-11-23T07:01:28.269Z,-0.04
2018-11-23T07:02:28.751Z,0.03
2018-11-23T07:03:28.481Z,-0.05
2018-11-23T07:04:28.711Z,-0.01
2018-11-23T07:05:28.175Z,-0.01
2018-11-23T07:06:28.156Z,-0.06
2018-11-23T07:07:28.637Z,-0.08
2018-11-23T07:08:28.373Z,-0.08
2018-11-23T07:09:28.593Z,-0.04
2018-11-23T07:10:28.057Z,-0.05
2018-11-23T07:11:28.538Z,-0.06
2018-11-23T07:12:28.514Z,-0.04
2018-11-23T07:13:28.245Z,-0.05
2018-11-23T07:14:28.485Z,-0.06
2018-11-23T07:15:28.453Z,-0.01
2018-11-23T07:16:28.178Z,-0.05
2018-11-23T07:17:28.145Z,-0.08
2018-11-23T07:18:28.129Z,-0.15
2018-11-23T07:19:28.113Z,-0.11
2018-11-23T07:20:28.080Z,-0.11
2018-11-23T07:21:27.797Z,-0.09
2018-11-23T07:22:28.021Z,-0.09
2018-11-23T07:23:28.001Z,-0.01
2018-11-23T07:24:27.977Z,0
2018-11-23T07:25:27.975Z,-0.11
2018-11-23T07:26:27.942Z,-0.11
2018-11-23T07:27:27.651Z,-0.13
2018-11-23T07:28:28.167Z,-0.12
2018-11-23T07:29:27.611Z,-0.06
2018-11-23T07:30:27.847Z,-0.05
2018-11-23T07:31:28.071Z,-0.05
2018-11-23T07:32:28.045Z,-0.08
2018-11-23T07:33:28.032Z,-0.01
2018-11-23T07:34:28.012Z,0.02
2018-11-23T07:35:27.977Z,-0.04
2018-11-23T07:36:27.750Z,0.03
2018-11-23T07:37:27.681Z,0.06
2018-11-23T07:38:27.665Z,0.05
2018-11-23T07:39:27.884Z,0.05
2018-11-23T07:40:27.359Z,0.13
2018-11-23T07:41:27.840Z,0.15
2018-11-23T07:42:27.568Z,0.21
2018-11-23T07:43:27.839Z,0.18
2018-11-23T07:44:27.511Z,0.31
2018-11-23T07:45:27.492Z,0.27
2018-11-23T07:46:27.720Z,0.27
2018-11-23T07:47:27.443Z,0.3
2018-11-23T07:48:27.682Z,0.31
2018-11-23T07:49:27.652Z,0.28
2018-11-23T07:50:27.627Z,0.27
2018-11-23T07:51:27.348Z,0.31
2018-11-23T07:52:27.587Z,0.31
2018-11-23T07:53:27.557Z,0.3
2018-11-23T07:54:27.282Z,0.24
2018-11-23T07:55:27.520Z,0.28
2018-11-23T07:56:27.238Z,0.34
2018-11-23T07:57:27.471Z,0.39
2018-11-23T07:58:27.434Z,0.39
2018-11-23T07:59:27.169Z,0.43
2018-11-23T08:00:27.395Z,0.38
2018-11-23T08:01:26.862Z,0.39
2018-11-23T08:02:27.367Z,0.38
2018-11-23T08:03:27.325Z,0.36
2018-11-23T08:04:27.309Z,0.49
2018-11-23T08:05:27.037Z,0.48
2018-11-23T08:06:27.265Z,0.49
2018-11-23T08:07:27.240Z,0.52
2018-11-23T08:08:26.959Z,0.57
2018-11-23T08:09:27.188Z,0.52
2018-11-23T08:10:27.180Z,0.45
2018-11-23T08:11:27.149Z,0.58
2018-11-23T08:12:27.125Z,0.68
2018-11-23T08:13:27.098Z,0.64
2018-11-23T08:14:27.076Z,0.75
2018-11-23T08:15:27.052Z,0.76
2018-11-23T08:16:26.771Z,0.8
2018-11-23T08:17:26.755Z,0.9
2018-11-23T08:18:26.987Z,0.85
2018-11-23T08:19:26.450Z,0.92
2018-11-23T08:20:26.682Z,0.96
2018-11-23T08:21:26.665Z,0.89
2018-11-23T08:22:26.637Z,0.97
2018-11-23T08:23:26.860Z,1.01
2018-11-23T08:24:27.214Z,0.98
2018-11-23T08:25:26.574Z,0.97
2018-11-23T08:26:26.791Z,0.97
2018-11-23T08:27:26.519Z,1.07
2018-11-23T08:28:26.754Z,0.98
2018-11-23T08:29:26.479Z,1.08
2018-11-23T08:30:26.453Z,1.14
2018-11-23T08:31:26.683Z,1.14
2018-11-23T08:32:26.405Z,1.18
2018-11-23T08:33:26.385Z,1.21
2018-11-23T08:34:26.363Z,1.15
2018-11-23T08:35:26.347Z,1.28
2018-11-23T08:36:26.632Z,1.26
2018-11-23T08:37:26.318Z,1.26
2018-11-23T08:38:26.518Z,1.24
2018-11-23T08:39:26.514Z,1.33
2018-11-23T08:40:26.493Z,1.34
2018-11-23T08:41:26.454Z,1.4
2018-11-23T08:42:26.434Z,1.39
2018-11-23T08:43:26.420Z,1.33
2018-11-23T08:44:26.132Z,1.39
2018-11-23T08:45:26.403Z,1.39
2018-11-23T08:46:26.358Z,1.4
2018-11-23T08:47:25.808Z,1.44
2018-11-23T08:48:26.290Z,1.52
2018-11-23T08:49:25.761Z,1.57
2018-11-23T08:50:26.014Z,1.5
2018-11-23T08:51:25.980Z,1.52
2018-11-23T08:52:26.210Z,1.58
2018-11-23T08:53:32.343Z,1.64
2018-11-23T08:54:26.186Z,1.71
2018-11-23T08:55:25.881Z,1.69
2018-11-23T08:56:25.602Z,1.68
2018-11-23T08:57:26.093Z,1.78
2018-11-23T08:58:26.077Z,1.82
2018-11-23T08:59:26.059Z,1.89
2018-11-23T09:00:25.781Z,1.83
2018-11-23T09:01:26.004Z,1.98
2018-11-23T09:02:25.993Z,1.97
2018-11-23T09:03:25.706Z,1.94
2018-11-23T09:04:25.680Z,1.94
2018-11-23T09:05:25.664Z,2.01
2018-11-23T09:06:25.725Z,2.1
2018-11-23T09:07:25.865Z,2.06
2018-11-23T09:08:25.852Z,2.01
2018-11-23T09:09:25.774Z,2.06
2018-11-23T09:10:25.583Z,2.13
2018-11-23T09:11:25.273Z,2.16
2018-11-23T09:12:25.256Z,2.22
2018-11-23T09:13:25.819Z,2.31
2018-11-23T09:14:25.458Z,2.28
2018-11-23T09:15:25.195Z,2.34
2018-11-23T09:16:25.683Z,2.77
2018-11-23T09:17:25.647Z,3.15
2018-11-23T09:18:25.632Z,3.2
2018-11-23T09:19:25.357Z,3.18
2018-11-23T09:20:25.582Z,3.16
2018-11-23T09:21:25.314Z,3.28
2018-11-23T09:22:28.148Z,3.5
2018-11-23T09:23:25.272Z,3.53
2018-11-23T09:24:25.275Z,3.57
2018-11-23T09:25:25.474Z,3.64
2018-11-23T09:26:25.200Z,3.75
2018-11-23T09:27:25.182Z,4.19
2018-11-23T09:28:25.419Z,5.01
2018-11-23T09:29:26.444Z,5.64
2018-11-23T09:30:25.364Z,5.86
2018-11-23T09:31:25.092Z,5.78
2018-11-23T09:32:25.327Z,5.66
2018-11-23T09:33:25.052Z,5.53
2018-11-23T09:34:25.036Z,5.3
2018-11-23T09:35:24.802Z,5.16
2018-11-23T09:36:25.246Z,5.1
2018-11-23T09:37:25.222Z,5.09
2018-11-23T09:38:25.210Z,4.92
2018-11-23T09:39:25.182Z,4.96
2018-11-23T09:40:24.981Z,4.98
2018-11-23T09:41:25.139Z,4.96
2018-11-23T09:42:24.894Z,5.04
2018-11-23T09:43:25.103Z,5.02
2018-11-23T09:44:25.104Z,5.13
2018-11-23T09:45:24.580Z,5.19
2018-11-23T09:46:25.046Z,5.41
2018-11-23T09:47:24.771Z,5.63
2018-11-23T09:48:25.000Z,5.75
2018-11-23T09:49:24.648Z,6.33
2018-11-23T09:50:24.973Z,6.97
2018-11-23T09:51:24.985Z,7.49
2018-11-23T09:52:24.924Z,7.84
2018-11-23T09:53:24.412Z,8.26
2018-11-23T09:54:24.887Z,8.65
2018-11-23T09:55:24.865Z,8.71
2018-11-23T09:56:24.857Z,8.72
2018-11-23T09:57:24.830Z,8.76
2018-11-23T09:58:24.556Z,8.75
2018-11-23T09:59:24.793Z,8.83
2018-11-23T10:00:24.781Z,8.9
2018-11-23T10:01:24.512Z,8.84
2018-11-23T10:02:24.484Z,8.97
2018-11-23T10:03:24.739Z,9.1
2018-11-23T10:04:24.803Z,9.32
2018-11-23T10:05:24.439Z,9.73
2018-11-23T10:06:24.414Z,10.03
2018-11-23T10:07:24.403Z,10.17
2018-11-23T10:08:24.641Z,10.19
2018-11-23T10:09:24.363Z,10.09
2018-11-23T10:10:24.346Z,10.01
2018-11-23T10:11:24.645Z,9.94
2018-11-23T10:12:24.312Z,10.14
2018-11-23T10:13:24.292Z,10.39
2018-11-23T10:14:24.022Z,10.65
2018-11-23T10:15:24.517Z,10.47
2018-11-23T10:16:24.244Z,10.15
2018-11-23T10:17:24.235Z,9.82
2018-11-23T10:18:24.216Z,9.39
2018-11-23T10:19:24.461Z,9.04
2018-11-23T10:20:24.489Z,8.62
2018-11-23T10:21:24.467Z,8.4
2018-11-23T10:22:24.405Z,8.37
2018-11-23T10:23:24.142Z,8.57
2018-11-23T10:24:24.396Z,8.72
2018-11-23T10:25:24.120Z,8.97
2018-11-23T10:26:24.346Z,8.91
2018-11-23T10:27:23.835Z,8.93
2018-11-23T10:28:24.310Z,8.83
2018-11-23T10:29:24.034Z,8.88
2018-11-23T10:30:24.037Z,8.81
2018-11-23T10:31:24.282Z,9.04
2018-11-23T10:32:24.241Z,9.16
2018-11-23T10:33:28.131Z,9.43
2018-11-23T10:34:24.211Z,9.39
2018-11-23T10:35:24.197Z,9.43
2018-11-23T10:36:23.931Z,9.42
2018-11-23T10:37:24.165Z,9.6
2018-11-23T10:38:23.900Z,9.81
2018-11-23T10:39:23.908Z,10.09
2018-11-23T10:40:23.608Z,10.32
2018-11-23T10:41:24.120Z,10.52
2018-11-23T10:42:24.155Z,10.7
2018-11-23T10:43:23.564Z,10.94
2018-11-23T10:44:24.058Z,10.95
2018-11-23T10:45:23.787Z,11.09
2018-11-23T10:46:24.038Z,11.13
2018-11-23T10:47:24.038Z,11.13
2018-11-23T10:48:23.749Z,11.16
2018-11-23T10:49:23.992Z,11.21
2018-11-23T10:50:23.968Z,11.32
2018-11-23T10:51:23.972Z,11.21
2018-11-23T10:52:24.034Z,10.95
2018-11-23T10:53:23.923Z,11.03
2018-11-23T10:54:23.661Z,11.16
2018-11-23T10:55:23.645Z,11.07
2018-11-23T10:56:23.892Z,11.11
2018-11-23T10:57:23.871Z,11.13
2018-11-23T10:58:23.867Z,11.11
2018-11-23T10:59:23.586Z,11.29
2018-11-23T11:00:23.584Z,10.89
2018-11-23T11:01:23.820Z,10.83
2018-11-23T11:02:23.556Z,10.83
2018-11-23T11:03:23.540Z,10.95
2018-11-23T11:04:23.273Z,11.03
2018-11-23T11:05:23.515Z,10.98
2018-11-23T11:06:23.764Z,11.01
2018-11-23T11:07:23.489Z,10.98
2018-11-23T11:08:23.727Z,10.53
2018-11-23T11:09:23.920Z,10.37
2018-11-23T11:10:23.213Z,10.24
2018-11-23T11:11:23.469Z,10.26
2018-11-23T11:12:23.710Z,10.3
2018-11-23T11:13:23.679Z,10.18
2018-11-23T11:14:23.405Z,10
2018-11-23T11:15:23.385Z,10.06
2018-11-23T11:16:23.125Z,9.91
2018-11-23T11:17:23.618Z,9.94
2018-11-23T11:18:23.599Z,10.18
2018-11-23T11:19:23.604Z,10.52
2018-11-23T11:20:23.326Z,10.91
2018-11-23T11:21:23.568Z,11.2
2018-11-23T11:22:23.301Z,11.46
2018-11-23T11:23:23.295Z,11.57
2018-11-23T11:24:23.280Z,11.78
2018-11-23T11:25:23.267Z,12.01
2018-11-23T11:26:23.511Z,12.26
2018-11-23T11:27:23.247Z,12.38
2018-11-23T11:28:23.503Z,12.2
2018-11-23T11:29:23.469Z,12.16
2018-11-23T11:30:23.461Z,12.19
2018-11-23T11:31:23.448Z,12.21
2018-11-23T11:32:23.186Z,12.23
2018-11-23T11:33:23.429Z,12.21
2018-11-23T11:34:23.417Z,12.37
2018-11-23T11:35:23.415Z,12.51
2018-11-23T11:36:23.409Z,12.57
2018-11-23T11:37:23.434Z,12.82
2018-11-23T11:38:23.118Z,13.12
2018-11-23T11:39:23.369Z,13.36
2018-11-23T11:40:23.359Z,13.3
2018-11-23T11:41:23.346Z,13.62
2018-11-23T11:42:23.336Z,13.81
2018-11-23T11:43:23.318Z,13.84
2018-11-23T11:44:23.061Z,13.91
2018-11-23T11:45:23.052Z,13.99
2018-11-23T11:46:23.049Z,14.1
2018-11-23T11:47:23.283Z,14.34
2018-11-23T11:48:22.773Z,14.35
2018-11-23T11:49:23.269Z,14.47
2018-11-23T11:50:23.008Z,14.75
2018-11-23T11:51:23.271Z,14.8
2018-11-23T11:52:23.246Z,14.95
2018-11-23T11:53:23.229Z,15.02
2018-11-23T11:54:23.003Z,15.03
2018-11-23T11:55:23.219Z,15.2
2018-11-23T11:56:22.962Z,15.36
2018-11-23T11:57:23.203Z,15.46
2018-11-23T11:58:22.944Z,15.46
2018-11-23T11:59:23.188Z,15.59
2018-11-23T12:00:22.927Z,15.57
2018-11-23T12:01:22.919Z,15.67
2018-11-23T12:02:23.167Z,15.52
2018-11-23T12:03:23.153Z,15.51
2018-11-23T12:04:23.052Z,15.49
2018-11-23T12:05:23.138Z,15.56
2018-11-23T12:06:23.139Z,15.51
2018-11-23T12:07:22.892Z,15.57
2018-11-23T12:08:23.118Z,15.52
2018-11-23T12:09:23.110Z,15.74
2018-11-23T12:10:22.855Z,15.92
2018-11-23T12:11:23.102Z,16.11
2018-11-23T12:12:23.091Z,16.04
2018-11-23T12:13:23.083Z,15.86
2018-11-23T12:14:22.583Z,15.78
2018-11-23T12:15:22.815Z,16
2018-11-23T12:16:23.705Z,16.27
2018-11-23T12:17:22.806Z,16.34
2018-11-23T12:18:22.791Z,16.33
2018-11-23T12:19:22.538Z,16.48
2018-11-23T12:20:22.811Z,16.44
2018-11-23T12:21:23.030Z,16.6
2018-11-23T12:22:23.029Z,16.58
2018-11-23T12:23:23.023Z,16.58
2018-11-23T12:24:23.022Z,16.73
2018-11-23T12:25:23.006Z,16.78
2018-11-23T12:26:22.498Z,16.59
2018-11-23T12:27:22.986Z,16.89
2018-11-23T12:28:22.732Z,16.85
2018-11-23T12:29:22.978Z,16.99
2018-11-23T12:30:22.970Z,17.06
2018-11-23T12:31:22.967Z,17.03
2018-11-23T12:32:22.706Z,17.07
2018-11-23T12:33:22.960Z,17
2018-11-23T12:34:22.688Z,16.88
2018-11-23T12:35:22.440Z,16.86
2018-11-23T12:36:22.681Z,16.86
2018-11-23T12:37:22.440Z,16.77
2018-11-23T12:38:22.916Z,16.78
2018-11-23T12:39:22.676Z,16.78
2018-11-23T12:40:22.907Z,16.83
2018-11-23T12:41:22.650Z,16.77
2018-11-23T12:42:22.640Z,16.7
2018-11-23T12:43:22.891Z,16.62
2018-11-23T12:44:22.395Z,16.73
2018-11-23T12:45:22.870Z,16.68
2018-11-23T12:46:22.608Z,16.77
2018-11-23T12:47:22.603Z,16.8
2018-11-23T12:48:22.595Z,16.71
2018-11-23T12:49:22.594Z,16.75
2018-11-23T12:50:22.604Z,16.99
2018-11-23T12:51:22.830Z,17.08
2018-11-23T12:52:22.833Z,17.23
2018-11-23T12:53:22.574Z,17.17
2018-11-23T12:54:22.808Z,17.3
2018-11-23T12:55:22.296Z,17.29
2018-11-23T12:56:22.800Z,17.3
2018-11-23T12:57:22.578Z,17.3
2018-11-23T12:58:22.787Z,17.23
2018-11-23T12:59:22.527Z,17.1
2018-11-23T13:00:22.773Z,17.04
2018-11-23T13:01:22.771Z,17.07
2018-11-23T13:02:22.507Z,16.92
2018-11-23T13:03:22.755Z,16.92
2018-11-23T13:04:22.499Z,16.81
2018-11-23T13:05:22.741Z,16.71